Battleford, Canada
Current Conditions -  °F | °C
As of 10:00 AM on Friday 24 Oct 2014 (Local Time) from CYQW Reporting Station
Clear Clear  
Wind Chill: 38°   Ceiling: Unl
Heat Index: 46°   Visibility: 9mi
Dew Point: 32°   Wind: 25mph
Humidity: 57%   Direction: 280°W
Pressure: 29.74"   Gusts: 35mph
Location:  52.77°N, 108.3°W
Report Text: CYQW 241600Z AUTO 28022G30KT 9SM CLR 08/00 A2974 RMK SLP088
Loading
Personal Weather Stations






























Interactive Weather Map
Tropical Storm Tracking
New forecast layout! Learn more

10-Day Weather Forecast

Advertisements
Track Severe Weather on mobile